<?xml version="1.0" encoding="UTF-8" standalone="no" ?>
<gpx xmlns="http://www.topografix.com/GPX/1/1" xmlns:xsi="http://www.w3.org/2001/XMLSchema-instance" xsi:schemaLocation="http://www.topografix.com/GPX/1/1 http://www.topografix.com/GPX/1/1/gpx.xsd" version="1.1" creator="VisuGPX - https://www.visugpx.com">
  <metadata>
    <name>La Marseillaise 2023 13 km</name>
  </metadata>
  <trk>
    <name><![CDATA[Trail des Reculees 2022  La Marseillaise sur TraceDeTrail.fr]]></name>
    <extensions>
      <line xmlns="http://www.topografix.com/GPX/gpx_style/0/2">
        <color>0000FF</color>
        <width>4</width>
      </line>
    </extensions>
    <trkseg>
      <trkpt lat="46.67442" lon="5.55323">
        <ele>254</ele>
        <time>2000-01-01T01:59:50.000Z</time>
        <extensions>
          <visugpx:TrkExtension xmlns:visugpx="https://www.visugpx.com/editgpx/">
            <visugpx:node>7</visugpx:node>
            </visugpx:TrkExtension>
        </extensions>
      </trkpt>
      <trkpt lat="46.67447" lon="5.55333">
        <ele>254.1</ele>
        <time>2000-01-01T02:00:00.000Z</time>
      </trkpt>
      <trkpt lat="46.67455" lon="5.55342">
        <ele>254</ele>
        <time>2000-01-01T02:00:10.000Z</time>
      </trkpt>
      <trkpt lat="46.67478" lon="5.55358">
        <ele>254</ele>
        <time>2000-01-01T02:00:20.000Z</time>
      </trkpt>
      <trkpt lat="46.67507" lon="5.55377">
        <ele>254</ele>
        <time>2000-01-01T02:00:30.000Z</time>
      </trkpt>
      <trkpt lat="46.67534" lon="5.55391">
        <ele>255</ele>
        <time>2000-01-01T02:00:40.000Z</time>
      </trkpt>
      <trkpt lat="46.6753" lon="5.55409">
        <ele>255.7</ele>
        <time>2000-01-01T02:00:50.000Z</time>
      </trkpt>
      <trkpt lat="46.6752" lon="5.55444">
        <ele>256</ele>
        <time>2000-01-01T02:01:00.000Z</time>
      </trkpt>
      <trkpt lat="46.67511" lon="5.55479">
        <ele>256</ele>
        <time>2000-01-01T02:01:10.000Z</time>
      </trkpt>
      <trkpt lat="46.675" lon="5.55521">
        <ele>256</ele>
        <time>2000-01-01T02:01:20.000Z</time>
      </trkpt>
      <trkpt lat="46.67492" lon="5.55545">
        <ele>257</ele>
        <time>2000-01-01T02:01:30.000Z</time>
      </trkpt>
      <trkpt lat="46.67454" lon="5.55525">
        <ele>256</ele>
        <time>2000-01-01T02:01:40.000Z</time>
      </trkpt>
      <trkpt lat="46.67425" lon="5.55508">
        <ele>256</ele>
        <time>2000-01-01T02:01:50.000Z</time>
      </trkpt>
      <trkpt lat="46.67412" lon="5.55502">
        <ele>257</ele>
        <time>2000-01-01T02:02:00.000Z</time>
      </trkpt>
      <trkpt lat="46.67394" lon="5.55491">
        <ele>256</ele>
        <time>2000-01-01T02:02:10.000Z</time>
      </trkpt>
      <trkpt lat="46.67371" lon="5.55483">
        <ele>256</ele>
        <time>2000-01-01T02:02:20.000Z</time>
      </trkpt>
      <trkpt lat="46.67345" lon="5.55483">
        <ele>256</ele>
        <time>2000-01-01T02:02:30.000Z</time>
      </trkpt>
      <trkpt lat="46.67334" lon="5.55484">
        <ele>256</ele>
        <time>2000-01-01T02:02:40.000Z</time>
      </trkpt>
      <trkpt lat="46.6732" lon="5.55475">
        <ele>256</ele>
        <time>2000-01-01T02:02:50.000Z</time>
      </trkpt>
      <trkpt lat="46.67313" lon="5.55475">
        <ele>256</ele>
        <time>2000-01-01T02:03:00.000Z</time>
      </trkpt>
      <trkpt lat="46.67284" lon="5.55467">
        <ele>256</ele>
        <time>2000-01-01T02:03:10.000Z</time>
      </trkpt>
      <trkpt lat="46.6726" lon="5.55466">
        <ele>256</ele>
        <time>2000-01-01T02:03:20.000Z</time>
      </trkpt>
      <trkpt lat="46.67258" lon="5.55499">
        <ele>256</ele>
        <time>2000-01-01T02:03:30.000Z</time>
      </trkpt>
      <trkpt lat="46.67255" lon="5.55514">
        <ele>256.2</ele>
        <time>2000-01-01T02:03:40.000Z</time>
      </trkpt>
      <trkpt lat="46.6725" lon="5.55544">
        <ele>255</ele>
        <time>2000-01-01T02:03:50.000Z</time>
      </trkpt>
      <trkpt lat="46.67257" lon="5.55572">
        <ele>255</ele>
        <time>2000-01-01T02:04:00.000Z</time>
      </trkpt>
      <trkpt lat="46.67259" lon="5.55599">
        <ele>256</ele>
        <time>2000-01-01T02:04:10.000Z</time>
      </trkpt>
      <trkpt lat="46.67263" lon="5.55623">
        <ele>256</ele>
        <time>2000-01-01T02:04:20.000Z</time>
      </trkpt>
      <trkpt lat="46.6727" lon="5.55651">
        <ele>256</ele>
        <time>2000-01-01T02:04:30.000Z</time>
      </trkpt>
      <trkpt lat="46.67276" lon="5.55715">
        <ele>256</ele>
        <time>2000-01-01T02:04:40.000Z</time>
      </trkpt>
      <trkpt lat="46.67281" lon="5.55742">
        <ele>257</ele>
        <time>2000-01-01T02:04:50.000Z</time>
      </trkpt>
      <trkpt lat="46.67282" lon="5.55776">
        <ele>257</ele>
        <time>2000-01-01T02:05:00.000Z</time>
      </trkpt>
      <trkpt lat="46.67281" lon="5.55798">
        <ele>258</ele>
        <time>2000-01-01T02:05:10.000Z</time>
      </trkpt>
      <trkpt lat="46.67279" lon="5.55825">
        <ele>258</ele>
        <time>2000-01-01T02:05:20.000Z</time>
      </trkpt>
      <trkpt lat="46.67278" lon="5.55854">
        <ele>258</ele>
        <time>2000-01-01T02:05:30.000Z</time>
      </trkpt>
      <trkpt lat="46.67275" lon="5.55887">
        <ele>259</ele>
        <time>2000-01-01T02:05:40.000Z</time>
      </trkpt>
      <trkpt lat="46.67284" lon="5.5591">
        <ele>259.8</ele>
        <time>2000-01-01T02:05:50.000Z</time>
      </trkpt>
      <trkpt lat="46.67295" lon="5.55932">
        <ele>259</ele>
        <time>2000-01-01T02:06:00.000Z</time>
      </trkpt>
      <trkpt lat="46.67295" lon="5.5594">
        <ele>259.6</ele>
        <time>2000-01-01T02:06:10.000Z</time>
      </trkpt>
      <trkpt lat="46.67282" lon="5.55962">
        <ele>259</ele>
        <time>2000-01-01T02:06:20.000Z</time>
      </trkpt>
      <trkpt lat="46.67264" lon="5.55979">
        <ele>259</ele>
        <time>2000-01-01T02:06:30.000Z</time>
      </trkpt>
      <trkpt lat="46.67251" lon="5.56">
        <ele>259</ele>
        <time>2000-01-01T02:06:40.000Z</time>
      </trkpt>
      <trkpt lat="46.6724" lon="5.56023">
        <ele>260</ele>
        <time>2000-01-01T02:06:50.000Z</time>
      </trkpt>
      <trkpt lat="46.67226" lon="5.5604">
        <ele>260.9</ele>
        <time>2000-01-01T02:07:00.000Z</time>
      </trkpt>
      <trkpt lat="46.67216" lon="5.56088">
        <ele>261</ele>
        <time>2000-01-01T02:07:10.000Z</time>
      </trkpt>
      <trkpt lat="46.67212" lon="5.56099">
        <ele>261.4</ele>
        <time>2000-01-01T02:07:20.000Z</time>
      </trkpt>
      <trkpt lat="46.67193" lon="5.56106">
        <ele>261</ele>
        <time>2000-01-01T02:07:30.000Z</time>
      </trkpt>
      <trkpt lat="46.67189" lon="5.5615">
        <ele>261</ele>
        <time>2000-01-01T02:07:40.000Z</time>
      </trkpt>
      <trkpt lat="46.67189" lon="5.5617">
        <ele>261.1</ele>
        <time>2000-01-01T02:07:50.000Z</time>
      </trkpt>
      <trkpt lat="46.67184" lon="5.56203">
        <ele>261</ele>
        <time>2000-01-01T02:08:00.000Z</time>
      </trkpt>
      <trkpt lat="46.67174" lon="5.56223">
        <ele>262</ele>
        <time>2000-01-01T02:08:10.000Z</time>
      </trkpt>
      <trkpt lat="46.67163" lon="5.56233">
        <ele>261</ele>
        <time>2000-01-01T02:08:20.000Z</time>
      </trkpt>
      <trkpt lat="46.67153" lon="5.56244">
        <ele>262.4</ele>
        <time>2000-01-01T02:08:30.000Z</time>
      </trkpt>
      <trkpt lat="46.67141" lon="5.56269">
        <ele>262</ele>
        <time>2000-01-01T02:08:40.000Z</time>
      </trkpt>
      <trkpt lat="46.67134" lon="5.56296">
        <ele>262</ele>
        <time>2000-01-01T02:08:50.000Z</time>
      </trkpt>
      <trkpt lat="46.6713" lon="5.56325">
        <ele>263</ele>
        <time>2000-01-01T02:09:00.000Z</time>
      </trkpt>
      <trkpt lat="46.67123" lon="5.56349">
        <ele>263.3</ele>
        <time>2000-01-01T02:09:10.000Z</time>
      </trkpt>
      <trkpt lat="46.67115" lon="5.56396">
        <ele>263</ele>
        <time>2000-01-01T02:09:20.000Z</time>
      </trkpt>
      <trkpt lat="46.67117" lon="5.56423">
        <ele>264</ele>
        <time>2000-01-01T02:09:30.000Z</time>
      </trkpt>
      <trkpt lat="46.67116" lon="5.56463">
        <ele>264</ele>
        <time>2000-01-01T02:09:40.000Z</time>
      </trkpt>
      <trkpt lat="46.67114" lon="5.5649">
        <ele>264</ele>
        <time>2000-01-01T02:09:50.000Z</time>
      </trkpt>
      <trkpt lat="46.67108" lon="5.56517">
        <ele>265</ele>
        <time>2000-01-01T02:10:00.000Z</time>
      </trkpt>
      <trkpt lat="46.67099" lon="5.5654">
        <ele>265.4</ele>
        <time>2000-01-01T02:10:10.000Z</time>
      </trkpt>
      <trkpt lat="46.67083" lon="5.56569">
        <ele>265</ele>
        <time>2000-01-01T02:10:20.000Z</time>
      </trkpt>
      <trkpt lat="46.67079" lon="5.56575">
        <ele>266</ele>
        <time>2000-01-01T02:10:30.000Z</time>
      </trkpt>
      <trkpt lat="46.67068" lon="5.566">
        <ele>265</ele>
        <time>2000-01-01T02:10:40.000Z</time>
      </trkpt>
      <trkpt lat="46.67054" lon="5.56625">
        <ele>265</ele>
        <time>2000-01-01T02:10:50.000Z</time>
      </trkpt>
      <trkpt lat="46.67037" lon="5.56674">
        <ele>266</ele>
        <time>2000-01-01T02:11:00.000Z</time>
      </trkpt>
      <trkpt lat="46.6702" lon="5.56706">
        <ele>266</ele>
        <time>2000-01-01T02:11:10.000Z</time>
      </trkpt>
      <trkpt lat="46.6702" lon="5.56735">
        <ele>266</ele>
        <time>2000-01-01T02:11:20.000Z</time>
      </trkpt>
      <trkpt lat="46.67028" lon="5.56754">
        <ele>267.1</ele>
        <time>2000-01-01T02:11:30.000Z</time>
      </trkpt>
      <trkpt lat="46.6704" lon="5.56777">
        <ele>267</ele>
        <time>2000-01-01T02:11:40.000Z</time>
      </trkpt>
      <trkpt lat="46.67033" lon="5.56788">
        <ele>267.6</ele>
        <time>2000-01-01T02:11:50.000Z</time>
      </trkpt>
      <trkpt lat="46.67007" lon="5.56819">
        <ele>269</ele>
        <time>2000-01-01T02:12:00.000Z</time>
      </trkpt>
      <trkpt lat="46.6698" lon="5.5678">
        <ele>269</ele>
        <time>2000-01-01T02:12:10.000Z</time>
      </trkpt>
      <trkpt lat="46.66968" lon="5.56744">
        <ele>269</ele>
        <time>2000-01-01T02:12:20.000Z</time>
      </trkpt>
      <trkpt lat="46.66952" lon="5.56739">
        <ele>268.7</ele>
        <time>2000-01-01T02:12:30.000Z</time>
      </trkpt>
      <trkpt lat="46.6693" lon="5.56741">
        <ele>269</ele>
        <time>2000-01-01T02:12:40.000Z</time>
      </trkpt>
      <trkpt lat="46.66906" lon="5.56741">
        <ele>270</ele>
        <time>2000-01-01T02:12:50.000Z</time>
      </trkpt>
      <trkpt lat="46.66897" lon="5.56737">
        <ele>271.5</ele>
        <time>2000-01-01T02:13:00.000Z</time>
      </trkpt>
      <trkpt lat="46.66888" lon="5.56726">
        <ele>273</ele>
        <time>2000-01-01T02:13:10.000Z</time>
      </trkpt>
      <trkpt lat="46.66875" lon="5.56707">
        <ele>271.2</ele>
        <time>2000-01-01T02:13:20.000Z</time>
      </trkpt>
      <trkpt lat="46.66855" lon="5.56705">
        <ele>273</ele>
        <time>2000-01-01T02:13:30.000Z</time>
      </trkpt>
      <trkpt lat="46.66842" lon="5.56709">
        <ele>272.9</ele>
        <time>2000-01-01T02:13:40.000Z</time>
      </trkpt>
      <trkpt lat="46.66828" lon="5.56721">
        <ele>273</ele>
        <time>2000-01-01T02:13:50.000Z</time>
      </trkpt>
      <trkpt lat="46.66824" lon="5.56736">
        <ele>273</ele>
        <time>2000-01-01T02:14:00.000Z</time>
      </trkpt>
      <trkpt lat="46.6682" lon="5.56748">
        <ele>273</ele>
        <time>2000-01-01T02:14:10.000Z</time>
      </trkpt>
      <trkpt lat="46.66812" lon="5.56756">
        <ele>274.6</ele>
        <time>2000-01-01T02:14:20.000Z</time>
      </trkpt>
      <trkpt lat="46.66804" lon="5.56757">
        <ele>275.1</ele>
        <time>2000-01-01T02:14:30.000Z</time>
      </trkpt>
      <trkpt lat="46.66799" lon="5.5676">
        <ele>275</ele>
        <time>2000-01-01T02:14:40.000Z</time>
      </trkpt>
      <trkpt lat="46.66783" lon="5.56759">
        <ele>276.7</ele>
        <time>2000-01-01T02:14:50.000Z</time>
      </trkpt>
      <trkpt lat="46.66758" lon="5.56768">
        <ele>279</ele>
        <time>2000-01-01T02:15:00.000Z</time>
      </trkpt>
      <trkpt lat="46.66755" lon="5.56779">
        <ele>282.4</ele>
        <time>2000-01-01T02:15:10.000Z</time>
      </trkpt>
      <trkpt lat="46.66751" lon="5.56798">
        <ele>285</ele>
        <time>2000-01-01T02:15:20.000Z</time>
      </trkpt>
      <trkpt lat="46.66754" lon="5.56806">
        <ele>285.6</ele>
        <time>2000-01-01T02:15:30.000Z</time>
      </trkpt>
      <trkpt lat="46.66756" lon="5.56821">
        <ele>287.6</ele>
        <time>2000-01-01T02:15:40.000Z</time>
      </trkpt>
      <trkpt lat="46.66759" lon="5.56831">
        <ele>290</ele>
        <time>2000-01-01T02:15:50.000Z</time>
      </trkpt>
      <trkpt lat="46.6676" lon="5.56859">
        <ele>290</ele>
        <time>2000-01-01T02:16:00.000Z</time>
      </trkpt>
      <trkpt lat="46.66766" lon="5.56888">
        <ele>290</ele>
        <time>2000-01-01T02:16:10.000Z</time>
      </trkpt>
      <trkpt lat="46.66758" lon="5.56898">
        <ele>289.6</ele>
        <time>2000-01-01T02:16:20.000Z</time>
      </trkpt>
      <trkpt lat="46.6676" lon="5.56923">
        <ele>287</ele>
        <time>2000-01-01T02:16:30.000Z</time>
      </trkpt>
      <trkpt lat="46.66762" lon="5.56931">
        <ele>285.5</ele>
        <time>2000-01-01T02:16:40.000Z</time>
      </trkpt>
      <trkpt lat="46.66765" lon="5.5695">
        <ele>283</ele>
        <time>2000-01-01T02:16:50.000Z</time>
      </trkpt>
      <trkpt lat="46.66769" lon="5.56959">
        <ele>279.8</ele>
        <time>2000-01-01T02:17:00.000Z</time>
      </trkpt>
      <trkpt lat="46.66772" lon="5.56972">
        <ele>276.9</ele>
        <time>2000-01-01T02:17:10.000Z</time>
      </trkpt>
      <trkpt lat="46.66778" lon="5.5699">
        <ele>276</ele>
        <time>2000-01-01T02:17:20.000Z</time>
      </trkpt>
      <trkpt lat="46.66777" lon="5.57003">
        <ele>275</ele>
        <time>2000-01-01T02:17:30.000Z</time>
      </trkpt>
      <trkpt lat="46.66766" lon="5.57026">
        <ele>276</ele>
        <time>2000-01-01T02:17:40.000Z</time>
      </trkpt>
      <trkpt lat="46.66744" lon="5.57024">
        <ele>277</ele>
        <time>2000-01-01T02:17:50.000Z</time>
      </trkpt>
      <trkpt lat="46.66719" lon="5.57037">
        <ele>279</ele>
        <time>2000-01-01T02:18:00.000Z</time>
      </trkpt>
      <trkpt lat="46.66708" lon="5.57071">
        <ele>279</ele>
        <time>2000-01-01T02:18:10.000Z</time>
      </trkpt>
      <trkpt lat="46.66689" lon="5.57129">
        <ele>279</ele>
        <time>2000-01-01T02:18:20.000Z</time>
      </trkpt>
      <trkpt lat="46.66692" lon="5.57164">
        <ele>278</ele>
        <time>2000-01-01T02:18:30.000Z</time>
      </trkpt>
      <trkpt lat="46.66696" lon="5.57189">
        <ele>279.6</ele>
        <time>2000-01-01T02:18:40.000Z</time>
      </trkpt>
      <trkpt lat="46.66701" lon="5.57211">
        <ele>278</ele>
        <time>2000-01-01T02:18:50.000Z</time>
      </trkpt>
      <trkpt lat="46.66707" lon="5.57219">
        <ele>278.3</ele>
        <time>2000-01-01T02:19:00.000Z</time>
      </trkpt>
      <trkpt lat="46.66719" lon="5.57225">
        <ele>278</ele>
        <time>2000-01-01T02:19:10.000Z</time>
      </trkpt>
      <trkpt lat="46.66737" lon="5.57225">
        <ele>275.5</ele>
        <time>2000-01-01T02:19:20.000Z</time>
      </trkpt>
      <trkpt lat="46.66718" lon="5.5728">
        <ele>278</ele>
        <time>2000-01-01T02:19:30.000Z</time>
      </trkpt>
      <trkpt lat="46.66704" lon="5.57332">
        <ele>277</ele>
        <time>2000-01-01T02:19:40.000Z</time>
      </trkpt>
      <trkpt lat="46.66692" lon="5.57385">
        <ele>277</ele>
        <time>2000-01-01T02:19:50.000Z</time>
      </trkpt>
      <trkpt lat="46.66688" lon="5.57407">
        <ele>276.8</ele>
        <time>2000-01-01T02:20:00.000Z</time>
      </trkpt>
      <trkpt lat="46.66676" lon="5.57464">
        <ele>277</ele>
        <time>2000-01-01T02:20:10.000Z</time>
      </trkpt>
      <trkpt lat="46.66671" lon="5.57492">
        <ele>278</ele>
        <time>2000-01-01T02:20:20.000Z</time>
      </trkpt>
      <trkpt lat="46.6667" lon="5.57503">
        <ele>277.9</ele>
        <time>2000-01-01T02:20:30.000Z</time>
      </trkpt>
      <trkpt lat="46.66663" lon="5.5753">
        <ele>278</ele>
        <time>2000-01-01T02:20:40.000Z</time>
      </trkpt>
      <trkpt lat="46.66658" lon="5.57557">
        <ele>278</ele>
        <time>2000-01-01T02:20:50.000Z</time>
      </trkpt>
      <trkpt lat="46.66654" lon="5.5759">
        <ele>279</ele>
        <time>2000-01-01T02:21:00.000Z</time>
      </trkpt>
      <trkpt lat="46.66653" lon="5.57606">
        <ele>279.5</ele>
        <time>2000-01-01T02:21:10.000Z</time>
      </trkpt>
      <trkpt lat="46.66648" lon="5.57636">
        <ele>280</ele>
        <time>2000-01-01T02:21:20.000Z</time>
      </trkpt>
      <trkpt lat="46.66643" lon="5.57649">
        <ele>279.8</ele>
        <time>2000-01-01T02:21:30.000Z</time>
      </trkpt>
      <trkpt lat="46.66622" lon="5.57725">
        <ele>280</ele>
        <time>2000-01-01T02:21:40.000Z</time>
      </trkpt>
      <trkpt lat="46.66624" lon="5.57752">
        <ele>280</ele>
        <time>2000-01-01T02:21:50.000Z</time>
      </trkpt>
      <trkpt lat="46.66617" lon="5.57782">
        <ele>281</ele>
        <time>2000-01-01T02:22:00.000Z</time>
      </trkpt>
      <trkpt lat="46.66605" lon="5.57808">
        <ele>281</ele>
        <time>2000-01-01T02:22:10.000Z</time>
      </trkpt>
      <trkpt lat="46.66583" lon="5.57863">
        <ele>282</ele>
        <time>2000-01-01T02:22:20.000Z</time>
      </trkpt>
      <trkpt lat="46.66569" lon="5.57885">
        <ele>283</ele>
        <time>2000-01-01T02:22:30.000Z</time>
      </trkpt>
      <trkpt lat="46.66549" lon="5.57936">
        <ele>284</ele>
        <time>2000-01-01T02:22:40.000Z</time>
      </trkpt>
      <trkpt lat="46.66539" lon="5.57959">
        <ele>284</ele>
        <time>2000-01-01T02:22:50.000Z</time>
      </trkpt>
      <trkpt lat="46.66528" lon="5.5798">
        <ele>284.3</ele>
        <time>2000-01-01T02:23:00.000Z</time>
      </trkpt>
      <trkpt lat="46.66507" lon="5.58014">
        <ele>285</ele>
        <time>2000-01-01T02:23:10.000Z</time>
      </trkpt>
      <trkpt lat="46.66494" lon="5.58034">
        <ele>285</ele>
        <time>2000-01-01T02:23:20.000Z</time>
      </trkpt>
      <trkpt lat="46.6648" lon="5.58052">
        <ele>285</ele>
        <time>2000-01-01T02:23:30.000Z</time>
      </trkpt>
      <trkpt lat="46.66476" lon="5.58059">
        <ele>285.8</ele>
        <time>2000-01-01T02:23:40.000Z</time>
      </trkpt>
      <trkpt lat="46.66457" lon="5.58086">
        <ele>286</ele>
        <time>2000-01-01T02:23:50.000Z</time>
      </trkpt>
      <trkpt lat="46.66438" lon="5.58107">
        <ele>286</ele>
        <time>2000-01-01T02:24:00.000Z</time>
      </trkpt>
      <trkpt lat="46.66421" lon="5.58123">
        <ele>286</ele>
        <time>2000-01-01T02:24:10.000Z</time>
      </trkpt>
      <trkpt lat="46.66386" lon="5.58133">
        <ele>287</ele>
        <time>2000-01-01T02:24:20.000Z</time>
      </trkpt>
      <trkpt lat="46.66368" lon="5.58123">
        <ele>288</ele>
        <time>2000-01-01T02:24:30.000Z</time>
      </trkpt>
      <trkpt lat="46.66355" lon="5.58107">
        <ele>288.3</ele>
        <time>2000-01-01T02:24:40.000Z</time>
      </trkpt>
      <trkpt lat="46.66339" lon="5.58093">
        <ele>289</ele>
        <time>2000-01-01T02:24:50.000Z</time>
      </trkpt>
      <trkpt lat="46.66323" lon="5.58082">
        <ele>289.4</ele>
        <time>2000-01-01T02:25:00.000Z</time>
      </trkpt>
      <trkpt lat="46.66307" lon="5.58064">
        <ele>290</ele>
        <time>2000-01-01T02:25:10.000Z</time>
      </trkpt>
      <trkpt lat="46.66292" lon="5.58039">
        <ele>290</ele>
        <time>2000-01-01T02:25:20.000Z</time>
      </trkpt>
      <trkpt lat="46.66287" lon="5.58034">
        <ele>290.7</ele>
        <time>2000-01-01T02:25:30.000Z</time>
      </trkpt>
      <trkpt lat="46.66256" lon="5.58007">
        <ele>291</ele>
        <time>2000-01-01T02:25:40.000Z</time>
      </trkpt>
      <trkpt lat="46.66241" lon="5.5799">
        <ele>291</ele>
        <time>2000-01-01T02:25:50.000Z</time>
      </trkpt>
      <trkpt lat="46.66208" lon="5.5796">
        <ele>293</ele>
        <time>2000-01-01T02:26:00.000Z</time>
      </trkpt>
      <trkpt lat="46.66199" lon="5.57951">
        <ele>293</ele>
        <time>2000-01-01T02:26:10.000Z</time>
      </trkpt>
      <trkpt lat="46.66184" lon="5.57933">
        <ele>294</ele>
        <time>2000-01-01T02:26:20.000Z</time>
      </trkpt>
      <trkpt lat="46.66171" lon="5.57924">
        <ele>294.7</ele>
        <time>2000-01-01T02:26:30.000Z</time>
      </trkpt>
      <trkpt lat="46.66159" lon="5.57947">
        <ele>295</ele>
        <time>2000-01-01T02:26:40.000Z</time>
      </trkpt>
      <trkpt lat="46.66138" lon="5.57996">
        <ele>297</ele>
        <time>2000-01-01T02:26:50.000Z</time>
      </trkpt>
      <trkpt lat="46.66118" lon="5.58032">
        <ele>298</ele>
        <time>2000-01-01T02:27:00.000Z</time>
      </trkpt>
      <trkpt lat="46.66106" lon="5.58055">
        <ele>298</ele>
        <time>2000-01-01T02:27:10.000Z</time>
      </trkpt>
      <trkpt lat="46.66095" lon="5.58079">
        <ele>299</ele>
        <time>2000-01-01T02:27:20.000Z</time>
      </trkpt>
      <trkpt lat="46.66085" lon="5.58105">
        <ele>299</ele>
        <time>2000-01-01T02:27:30.000Z</time>
      </trkpt>
      <trkpt lat="46.66081" lon="5.58118">
        <ele>298.8</ele>
        <time>2000-01-01T02:27:40.000Z</time>
      </trkpt>
      <trkpt lat="46.66076" lon="5.58148">
        <ele>297</ele>
        <time>2000-01-01T02:27:50.000Z</time>
      </trkpt>
      <trkpt lat="46.66073" lon="5.58183">
        <ele>297</ele>
        <time>2000-01-01T02:28:00.000Z</time>
      </trkpt>
      <trkpt lat="46.66073" lon="5.58242">
        <ele>297</ele>
        <time>2000-01-01T02:28:10.000Z</time>
      </trkpt>
      <trkpt lat="46.66069" lon="5.58257">
        <ele>296.5</ele>
        <time>2000-01-01T02:28:20.000Z</time>
      </trkpt>
      <trkpt lat="46.66055" lon="5.58296">
        <ele>297</ele>
        <time>2000-01-01T02:28:30.000Z</time>
      </trkpt>
      <trkpt lat="46.66049" lon="5.58324">
        <ele>297</ele>
        <time>2000-01-01T02:28:40.000Z</time>
      </trkpt>
      <trkpt lat="46.66041" lon="5.58347">
        <ele>298</ele>
        <time>2000-01-01T02:28:50.000Z</time>
      </trkpt>
      <trkpt lat="46.6603" lon="5.58372">
        <ele>299</ele>
        <time>2000-01-01T02:29:00.000Z</time>
      </trkpt>
      <trkpt lat="46.66015" lon="5.58421">
        <ele>300</ele>
        <time>2000-01-01T02:29:10.000Z</time>
      </trkpt>
      <trkpt lat="46.66004" lon="5.58444">
        <ele>300</ele>
        <time>2000-01-01T02:29:20.000Z</time>
      </trkpt>
      <trkpt lat="46.65994" lon="5.58461">
        <ele>299.8</ele>
        <time>2000-01-01T02:29:30.000Z</time>
      </trkpt>
      <trkpt lat="46.65963" lon="5.58503">
        <ele>301</ele>
        <time>2000-01-01T02:29:40.000Z</time>
      </trkpt>
      <trkpt lat="46.65947" lon="5.58523">
        <ele>302</ele>
        <time>2000-01-01T02:29:50.000Z</time>
      </trkpt>
      <trkpt lat="46.65941" lon="5.58532">
        <ele>302</ele>
        <time>2000-01-01T02:30:00.000Z</time>
      </trkpt>
      <trkpt lat="46.65929" lon="5.58553">
        <ele>302</ele>
        <time>2000-01-01T02:30:10.000Z</time>
      </trkpt>
      <trkpt lat="46.65918" lon="5.58575">
        <ele>302</ele>
        <time>2000-01-01T02:30:20.000Z</time>
      </trkpt>
      <trkpt lat="46.65907" lon="5.58599">
        <ele>302</ele>
        <time>2000-01-01T02:30:30.000Z</time>
      </trkpt>
      <trkpt lat="46.6589" lon="5.58641">
        <ele>304</ele>
        <time>2000-01-01T02:30:40.000Z</time>
      </trkpt>
      <trkpt lat="46.6588" lon="5.58664">
        <ele>304</ele>
        <time>2000-01-01T02:30:50.000Z</time>
      </trkpt>
      <trkpt lat="46.65862" lon="5.58696">
        <ele>304</ele>
        <time>2000-01-01T02:31:00.000Z</time>
      </trkpt>
      <trkpt lat="46.65849" lon="5.58717">
        <ele>305</ele>
        <time>2000-01-01T02:31:10.000Z</time>
      </trkpt>
      <trkpt lat="46.65829" lon="5.58771">
        <ele>306</ele>
        <time>2000-01-01T02:31:20.000Z</time>
      </trkpt>
      <trkpt lat="46.65822" lon="5.58798">
        <ele>306</ele>
        <time>2000-01-01T02:31:30.000Z</time>
      </trkpt>
      <trkpt lat="46.65818" lon="5.58805">
        <ele>306.6</ele>
        <time>2000-01-01T02:31:40.000Z</time>
      </trkpt>
      <trkpt lat="46.65805" lon="5.58818">
        <ele>308</ele>
        <time>2000-01-01T02:31:50.000Z</time>
      </trkpt>
      <trkpt lat="46.65792" lon="5.58835">
        <ele>308.5</ele>
        <time>2000-01-01T02:32:00.000Z</time>
      </trkpt>
      <trkpt lat="46.65781" lon="5.58852">
        <ele>309</ele>
        <time>2000-01-01T02:32:10.000Z</time>
      </trkpt>
      <trkpt lat="46.65768" lon="5.58844">
        <ele>310.7</ele>
        <time>2000-01-01T02:32:20.000Z</time>
      </trkpt>
      <trkpt lat="46.65754" lon="5.5884">
        <ele>311</ele>
        <time>2000-01-01T02:32:30.000Z</time>
      </trkpt>
      <trkpt lat="46.65744" lon="5.58862">
        <ele>312.2</ele>
        <time>2000-01-01T02:32:40.000Z</time>
      </trkpt>
      <trkpt lat="46.65731" lon="5.58909">
        <ele>312</ele>
        <time>2000-01-01T02:32:50.000Z</time>
      </trkpt>
      <trkpt lat="46.65723" lon="5.58931">
        <ele>311.9</ele>
        <time>2000-01-01T02:33:00.000Z</time>
      </trkpt>
      <trkpt lat="46.65709" lon="5.58957">
        <ele>313</ele>
        <time>2000-01-01T02:33:10.000Z</time>
      </trkpt>
      <trkpt lat="46.65682" lon="5.59002">
        <ele>313</ele>
        <time>2000-01-01T02:33:20.000Z</time>
      </trkpt>
      <trkpt lat="46.65673" lon="5.59022">
        <ele>313.8</ele>
        <time>2000-01-01T02:33:30.000Z</time>
      </trkpt>
      <trkpt lat="46.65667" lon="5.59031">
        <ele>313</ele>
        <time>2000-01-01T02:33:40.000Z</time>
      </trkpt>
      <trkpt lat="46.65664" lon="5.5906">
        <ele>313</ele>
        <time>2000-01-01T02:33:50.000Z</time>
      </trkpt>
      <trkpt lat="46.65675" lon="5.59083">
        <ele>311</ele>
        <time>2000-01-01T02:34:00.000Z</time>
      </trkpt>
      <trkpt lat="46.65672" lon="5.59113">
        <ele>310</ele>
        <time>2000-01-01T02:34:10.000Z</time>
      </trkpt>
      <trkpt lat="46.6567" lon="5.59173">
        <ele>310</ele>
        <time>2000-01-01T02:34:20.000Z</time>
      </trkpt>
      <trkpt lat="46.65666" lon="5.59231">
        <ele>310</ele>
        <time>2000-01-01T02:34:30.000Z</time>
      </trkpt>
      <trkpt lat="46.65664" lon="5.59251">
        <ele>309.3</ele>
        <time>2000-01-01T02:34:40.000Z</time>
      </trkpt>
      <trkpt lat="46.6566" lon="5.59279">
        <ele>309</ele>
        <time>2000-01-01T02:34:50.000Z</time>
      </trkpt>
      <trkpt lat="46.65654" lon="5.59305">
        <ele>309</ele>
        <time>2000-01-01T02:35:00.000Z</time>
      </trkpt>
      <trkpt lat="46.65633" lon="5.59358">
        <ele>310</ele>
        <time>2000-01-01T02:35:10.000Z</time>
      </trkpt>
      <trkpt lat="46.6562" lon="5.59379">
        <ele>312</ele>
        <time>2000-01-01T02:35:20.000Z</time>
      </trkpt>
      <trkpt lat="46.65606" lon="5.59407">
        <ele>312</ele>
        <time>2000-01-01T02:35:30.000Z</time>
      </trkpt>
      <trkpt lat="46.65586" lon="5.59428">
        <ele>313</ele>
        <time>2000-01-01T02:35:40.000Z</time>
      </trkpt>
      <trkpt lat="46.65572" lon="5.59449">
        <ele>313</ele>
        <time>2000-01-01T02:35:50.000Z</time>
      </trkpt>
      <trkpt lat="46.65546" lon="5.59492">
        <ele>313</ele>
        <time>2000-01-01T02:36:00.000Z</time>
      </trkpt>
      <trkpt lat="46.65533" lon="5.59512">
        <ele>313</ele>
        <time>2000-01-01T02:36:10.000Z</time>
      </trkpt>
      <trkpt lat="46.65522" lon="5.59534">
        <ele>313</ele>
        <time>2000-01-01T02:36:20.000Z</time>
      </trkpt>
      <trkpt lat="46.65502" lon="5.59566">
        <ele>312</ele>
        <time>2000-01-01T02:36:30.000Z</time>
      </trkpt>
      <trkpt lat="46.65492" lon="5.59591">
        <ele>312</ele>
        <time>2000-01-01T02:36:40.000Z</time>
      </trkpt>
      <trkpt lat="46.65486" lon="5.59604">
        <ele>310.6</ele>
        <time>2000-01-01T02:36:50.000Z</time>
      </trkpt>
      <trkpt lat="46.65467" lon="5.59613">
        <ele>312</ele>
        <time>2000-01-01T02:37:00.000Z</time>
      </trkpt>
      <trkpt lat="46.65447" lon="5.5963">
        <ele>312</ele>
        <time>2000-01-01T02:37:10.000Z</time>
      </trkpt>
      <trkpt lat="46.65432" lon="5.59645">
        <ele>312.1</ele>
        <time>2000-01-01T02:37:20.000Z</time>
      </trkpt>
      <trkpt lat="46.65418" lon="5.59668">
        <ele>312</ele>
        <time>2000-01-01T02:37:30.000Z</time>
      </trkpt>
      <trkpt lat="46.65409" lon="5.59698">
        <ele>312</ele>
        <time>2000-01-01T02:37:40.000Z</time>
      </trkpt>
      <trkpt lat="46.65401" lon="5.59734">
        <ele>312</ele>
        <time>2000-01-01T02:37:50.000Z</time>
      </trkpt>
      <trkpt lat="46.654" lon="5.59746">
        <ele>311.9</ele>
        <time>2000-01-01T02:38:00.000Z</time>
      </trkpt>
      <trkpt lat="46.65407" lon="5.59771">
        <ele>312</ele>
        <time>2000-01-01T02:38:10.000Z</time>
      </trkpt>
      <trkpt lat="46.65414" lon="5.5979">
        <ele>312.5</ele>
        <time>2000-01-01T02:38:20.000Z</time>
      </trkpt>
      <trkpt lat="46.65407" lon="5.59811">
        <ele>313</ele>
        <time>2000-01-01T02:38:30.000Z</time>
      </trkpt>
      <trkpt lat="46.65394" lon="5.59827">
        <ele>313.8</ele>
        <time>2000-01-01T02:38:40.000Z</time>
      </trkpt>
      <trkpt lat="46.65383" lon="5.59838">
        <ele>313</ele>
        <time>2000-01-01T02:38:50.000Z</time>
      </trkpt>
      <trkpt lat="46.65368" lon="5.59847">
        <ele>314</ele>
        <time>2000-01-01T02:39:00.000Z</time>
      </trkpt>
      <trkpt lat="46.65356" lon="5.5985">
        <ele>314</ele>
        <time>2000-01-01T02:39:10.000Z</time>
      </trkpt>
      <trkpt lat="46.65343" lon="5.59862">
        <ele>314</ele>
        <time>2000-01-01T02:39:20.000Z</time>
      </trkpt>
      <trkpt lat="46.65319" lon="5.59882">
        <ele>314</ele>
        <time>2000-01-01T02:39:30.000Z</time>
      </trkpt>
      <trkpt lat="46.65289" lon="5.59907">
        <ele>315</ele>
        <time>2000-01-01T02:39:40.000Z</time>
      </trkpt>
      <trkpt lat="46.65288" lon="5.59927">
        <ele>315.8</ele>
        <time>2000-01-01T02:39:50.000Z</time>
      </trkpt>
      <trkpt lat="46.65262" lon="5.59975">
        <ele>316</ele>
        <time>2000-01-01T02:40:00.000Z</time>
      </trkpt>
      <trkpt lat="46.65248" lon="5.60019">
        <ele>317</ele>
        <time>2000-01-01T02:40:10.000Z</time>
      </trkpt>
      <trkpt lat="46.65251" lon="5.60041">
        <ele>319.5</ele>
        <time>2000-01-01T02:40:20.000Z</time>
      </trkpt>
      <trkpt lat="46.65312" lon="5.6003">
        <ele>320</ele>
        <time>2000-01-01T02:40:30.000Z</time>
      </trkpt>
      <trkpt lat="46.65328" lon="5.60057">
        <ele>322</ele>
        <time>2000-01-01T02:40:40.000Z</time>
      </trkpt>
      <trkpt lat="46.65344" lon="5.60086">
        <ele>323</ele>
        <time>2000-01-01T02:40:50.000Z</time>
      </trkpt>
      <trkpt lat="46.65354" lon="5.60117">
        <ele>324</ele>
        <time>2000-01-01T02:41:00.000Z</time>
      </trkpt>
      <trkpt lat="46.65365" lon="5.60149">
        <ele>325</ele>
        <time>2000-01-01T02:41:10.000Z</time>
      </trkpt>
      <trkpt lat="46.65376" lon="5.60179">
        <ele>326</ele>
        <time>2000-01-01T02:41:20.000Z</time>
      </trkpt>
      <trkpt lat="46.65388" lon="5.60208">
        <ele>329</ele>
        <time>2000-01-01T02:41:30.000Z</time>
      </trkpt>
      <trkpt lat="46.65422" lon="5.60246">
        <ele>329</ele>
        <time>2000-01-01T02:41:40.000Z</time>
      </trkpt>
      <trkpt lat="46.65454" lon="5.60273">
        <ele>330</ele>
        <time>2000-01-01T02:41:50.000Z</time>
      </trkpt>
      <trkpt lat="46.65471" lon="5.60297">
        <ele>331</ele>
        <time>2000-01-01T02:42:00.000Z</time>
      </trkpt>
      <trkpt lat="46.65483" lon="5.60331">
        <ele>333</ele>
        <time>2000-01-01T02:42:10.000Z</time>
      </trkpt>
      <trkpt lat="46.65501" lon="5.60379">
        <ele>333</ele>
        <time>2000-01-01T02:42:20.000Z</time>
      </trkpt>
      <trkpt lat="46.65513" lon="5.60412">
        <ele>335</ele>
        <time>2000-01-01T02:42:30.000Z</time>
      </trkpt>
      <trkpt lat="46.65534" lon="5.6046">
        <ele>336</ele>
        <time>2000-01-01T02:42:40.000Z</time>
      </trkpt>
      <trkpt lat="46.65551" lon="5.60494">
        <ele>336</ele>
        <time>2000-01-01T02:42:50.000Z</time>
      </trkpt>
      <trkpt lat="46.65563" lon="5.60504">
        <ele>336.1</ele>
        <time>2000-01-01T02:43:00.000Z</time>
      </trkpt>
      <trkpt lat="46.65574" lon="5.60501">
        <ele>336</ele>
        <time>2000-01-01T02:43:10.000Z</time>
      </trkpt>
      <trkpt lat="46.65583" lon="5.60523">
        <ele>336.7</ele>
        <time>2000-01-01T02:43:20.000Z</time>
      </trkpt>
      <trkpt lat="46.6559" lon="5.60538">
        <ele>336</ele>
        <time>2000-01-01T02:43:30.000Z</time>
      </trkpt>
      <trkpt lat="46.65594" lon="5.60569">
        <ele>339</ele>
        <time>2000-01-01T02:43:40.000Z</time>
      </trkpt>
      <trkpt lat="46.65607" lon="5.60608">
        <ele>343</ele>
        <time>2000-01-01T02:43:50.000Z</time>
      </trkpt>
      <trkpt lat="46.65614" lon="5.60649">
        <ele>342</ele>
        <time>2000-01-01T02:44:00.000Z</time>
      </trkpt>
      <trkpt lat="46.65628" lon="5.60632">
        <ele>344.8</ele>
        <time>2000-01-01T02:44:10.000Z</time>
      </trkpt>
      <trkpt lat="46.65637" lon="5.6062">
        <ele>341</ele>
        <time>2000-01-01T02:44:20.000Z</time>
      </trkpt>
      <trkpt lat="46.6565" lon="5.60601">
        <ele>339.8</ele>
        <time>2000-01-01T02:44:30.000Z</time>
      </trkpt>
      <trkpt lat="46.6566" lon="5.6061">
        <ele>339</ele>
        <time>2000-01-01T02:44:40.000Z</time>
      </trkpt>
      <trkpt lat="46.65677" lon="5.60588">
        <ele>339</ele>
        <time>2000-01-01T02:44:50.000Z</time>
      </trkpt>
      <trkpt lat="46.65689" lon="5.60571">
        <ele>339.2</ele>
        <time>2000-01-01T02:45:00.000Z</time>
      </trkpt>
      <trkpt lat="46.657" lon="5.60543">
        <ele>339</ele>
        <time>2000-01-01T02:45:10.000Z</time>
      </trkpt>
      <trkpt lat="46.65696" lon="5.60514">
        <ele>339</ele>
        <time>2000-01-01T02:45:20.000Z</time>
      </trkpt>
      <trkpt lat="46.65678" lon="5.60488">
        <ele>339</ele>
        <time>2000-01-01T02:45:30.000Z</time>
      </trkpt>
      <trkpt lat="46.65664" lon="5.60457">
        <ele>339</ele>
        <time>2000-01-01T02:45:40.000Z</time>
      </trkpt>
      <trkpt lat="46.65648" lon="5.60421">
        <ele>340</ele>
        <time>2000-01-01T02:45:50.000Z</time>
      </trkpt>
      <trkpt lat="46.65636" lon="5.60392">
        <ele>342</ele>
        <time>2000-01-01T02:46:00.000Z</time>
      </trkpt>
      <trkpt lat="46.65624" lon="5.60362">
        <ele>342</ele>
        <time>2000-01-01T02:46:10.000Z</time>
      </trkpt>
      <trkpt lat="46.65618" lon="5.60332">
        <ele>342</ele>
        <time>2000-01-01T02:46:20.000Z</time>
      </trkpt>
      <trkpt lat="46.65621" lon="5.60306">
        <ele>345.8</ele>
        <time>2000-01-01T02:46:30.000Z</time>
      </trkpt>
      <trkpt lat="46.65749" lon="5.60289">
        <ele>372</ele>
        <time>2000-01-01T02:46:40.000Z</time>
      </trkpt>
      <trkpt lat="46.65761" lon="5.60323">
        <ele>377</ele>
        <time>2000-01-01T02:46:50.000Z</time>
      </trkpt>
      <trkpt lat="46.65776" lon="5.60366">
        <ele>381</ele>
        <time>2000-01-01T02:47:00.000Z</time>
      </trkpt>
      <trkpt lat="46.65793" lon="5.60389">
        <ele>388</ele>
        <time>2000-01-01T02:47:10.000Z</time>
      </trkpt>
      <trkpt lat="46.65811" lon="5.60413">
        <ele>394</ele>
        <time>2000-01-01T02:47:20.000Z</time>
      </trkpt>
      <trkpt lat="46.65841" lon="5.60447">
        <ele>400</ele>
        <time>2000-01-01T02:47:30.000Z</time>
      </trkpt>
      <trkpt lat="46.65861" lon="5.60449">
        <ele>401</ele>
        <time>2000-01-01T02:47:40.000Z</time>
      </trkpt>
      <trkpt lat="46.65845" lon="5.6042">
        <ele>400</ele>
        <time>2000-01-01T02:47:50.000Z</time>
      </trkpt>
      <trkpt lat="46.65826" lon="5.60386">
        <ele>400</ele>
        <time>2000-01-01T02:48:00.000Z</time>
      </trkpt>
      <trkpt lat="46.6582" lon="5.60347">
        <ele>402</ele>
        <time>2000-01-01T02:48:10.000Z</time>
      </trkpt>
      <trkpt lat="46.65811" lon="5.60288">
        <ele>404</ele>
        <time>2000-01-01T02:48:20.000Z</time>
      </trkpt>
      <trkpt lat="46.65823" lon="5.60227">
        <ele>405</ele>
        <time>2000-01-01T02:48:30.000Z</time>
        <extensions>
          <visugpx:TrkExtension xmlns:visugpx="https://www.visugpx.com/editgpx/">
            <visugpx:node>1</visugpx:node>
            </visugpx:TrkExtension>
        </extensions>
      </trkpt>
      <trkpt lat="46.65822" lon="5.60232">
        <ele>406.7</ele>
      </trkpt>
      <trkpt lat="46.65831" lon="5.6024">
        <ele>408.2</ele>
      </trkpt>
      <trkpt lat="46.65844" lon="5.6027">
        <ele>413.7</ele>
      </trkpt>
      <trkpt lat="46.6585" lon="5.60276">
        <ele>416.5</ele>
      </trkpt>
      <trkpt lat="46.65849" lon="5.60268">
        <ele>416.2</ele>
      </trkpt>
      <trkpt lat="46.65856" lon="5.6023">
        <ele>420.9</ele>
      </trkpt>
      <trkpt lat="46.65872" lon="5.60205">
        <ele>425.6</ele>
      </trkpt>
      <trkpt lat="46.65893" lon="5.60193">
        <ele>429.5</ele>
      </trkpt>
      <trkpt lat="46.6591" lon="5.60161">
        <ele>435.8</ele>
      </trkpt>
      <trkpt lat="46.65925" lon="5.60154">
        <ele>441.2</ele>
      </trkpt>
      <trkpt lat="46.65938" lon="5.60165">
        <ele>450</ele>
      </trkpt>
      <trkpt lat="46.65934" lon="5.6018">
        <ele>450</ele>
      </trkpt>
      <trkpt lat="46.65939" lon="5.60196">
        <ele>455.6</ele>
      </trkpt>
      <trkpt lat="46.65953" lon="5.60161">
        <ele>458.4</ele>
      </trkpt>
      <trkpt lat="46.66018" lon="5.60115">
        <ele>474.3</ele>
      </trkpt>
      <trkpt lat="46.66018" lon="5.60121">
        <ele>478</ele>
      </trkpt>
      <trkpt lat="46.65994" lon="5.60161">
        <ele>488.7</ele>
        <extensions>
          <visugpx:TrkExtension xmlns:visugpx="https://www.visugpx.com/editgpx/">
            <visugpx:node>2</visugpx:node>
            </visugpx:TrkExtension>
        </extensions>
      </trkpt>
      <trkpt lat="46.65979" lon="5.60188">
        <ele>488.6</ele>
      </trkpt>
      <trkpt lat="46.65983" lon="5.6021">
        <ele>493.2</ele>
      </trkpt>
      <trkpt lat="46.65989" lon="5.60219">
        <ele>498.1</ele>
        <extensions>
          <visugpx:TrkExtension xmlns:visugpx="https://www.visugpx.com/editgpx/">
            <visugpx:node>3</visugpx:node>
            </visugpx:TrkExtension>
        </extensions>
      </trkpt>
      <trkpt lat="46.65992" lon="5.60203">
        <ele>500.6</ele>
      </trkpt>
      <trkpt lat="46.65997" lon="5.60192">
        <ele>502.6</ele>
      </trkpt>
      <trkpt lat="46.65993" lon="5.60187">
        <ele>498.6</ele>
      </trkpt>
      <trkpt lat="46.66006" lon="5.60172">
        <ele>501.9</ele>
      </trkpt>
      <trkpt lat="46.66012" lon="5.60168">
        <ele>503.4</ele>
      </trkpt>
      <trkpt lat="46.66023" lon="5.60162">
        <ele>505.3</ele>
      </trkpt>
      <trkpt lat="46.66028" lon="5.60163">
        <ele>508.9</ele>
      </trkpt>
      <trkpt lat="46.6603" lon="5.60175">
        <ele>514.7</ele>
        <extensions>
          <visugpx:TrkExtension xmlns:visugpx="https://www.visugpx.com/editgpx/">
            <visugpx:node>4</visugpx:node>
            </visugpx:TrkExtension>
        </extensions>
      </trkpt>
      <trkpt lat="46.66051" lon="5.60163">
        <ele>517.9</ele>
      </trkpt>
      <trkpt lat="46.66071" lon="5.60148">
        <ele>518.9</ele>
      </trkpt>
      <trkpt lat="46.66114" lon="5.60132">
        <ele>524.6</ele>
      </trkpt>
      <trkpt lat="46.66145" lon="5.60132">
        <ele>527</ele>
      </trkpt>
      <trkpt lat="46.66172" lon="5.60144">
        <ele>531.5</ele>
      </trkpt>
      <trkpt lat="46.6625" lon="5.60134">
        <ele>529.4</ele>
      </trkpt>
      <trkpt lat="46.66289" lon="5.60099">
        <ele>516.9</ele>
      </trkpt>
      <trkpt lat="46.66339" lon="5.6007">
        <ele>508.5</ele>
      </trkpt>
      <trkpt lat="46.66399" lon="5.60044">
        <ele>505.7</ele>
      </trkpt>
      <trkpt lat="46.66473" lon="5.59997">
        <ele>497.9</ele>
      </trkpt>
      <trkpt lat="46.6654" lon="5.5994">
        <ele>488.8</ele>
      </trkpt>
      <trkpt lat="46.66585" lon="5.59883">
        <ele>484.3</ele>
      </trkpt>
      <trkpt lat="46.66615" lon="5.59816">
        <ele>474.8</ele>
      </trkpt>
      <trkpt lat="46.66645" lon="5.59687">
        <ele>456.6</ele>
      </trkpt>
      <trkpt lat="46.66657" lon="5.59555">
        <ele>436.5</ele>
      </trkpt>
      <trkpt lat="46.66648" lon="5.5951">
        <ele>432</ele>
      </trkpt>
      <trkpt lat="46.66622" lon="5.59428">
        <ele>422.5</ele>
      </trkpt>
      <trkpt lat="46.66615" lon="5.59391">
        <ele>419.5</ele>
      </trkpt>
      <trkpt lat="46.66616" lon="5.59361">
        <ele>417.7</ele>
      </trkpt>
      <trkpt lat="46.66629" lon="5.59339">
        <ele>418.5</ele>
      </trkpt>
      <trkpt lat="46.66627" lon="5.59289">
        <ele>412.2</ele>
      </trkpt>
      <trkpt lat="46.66631" lon="5.59288">
        <ele>413.1</ele>
        <extensions>
          <visugpx:TrkExtension xmlns:visugpx="https://www.visugpx.com/editgpx/">
            <visugpx:node>5</visugpx:node>
            </visugpx:TrkExtension>
        </extensions>
      </trkpt>
      <trkpt lat="46.66627" lon="5.59289">
        <ele>412.2</ele>
      </trkpt>
      <trkpt lat="46.66626" lon="5.59219">
        <ele>403.8</ele>
      </trkpt>
      <trkpt lat="46.66633" lon="5.59184">
        <ele>400</ele>
      </trkpt>
      <trkpt lat="46.66641" lon="5.59164">
        <ele>396.7</ele>
      </trkpt>
      <trkpt lat="46.66651" lon="5.5916">
        <ele>396.9</ele>
      </trkpt>
      <trkpt lat="46.6666" lon="5.59133">
        <ele>392.1</ele>
      </trkpt>
      <trkpt lat="46.66661" lon="5.59112">
        <ele>388.2</ele>
      </trkpt>
      <trkpt lat="46.66681" lon="5.59081">
        <ele>386.4</ele>
      </trkpt>
      <trkpt lat="46.66685" lon="5.59062">
        <ele>385.4</ele>
      </trkpt>
      <trkpt lat="46.6669" lon="5.59032">
        <ele>382.9</ele>
      </trkpt>
      <trkpt lat="46.66696" lon="5.59009">
        <ele>380</ele>
      </trkpt>
      <trkpt lat="46.667" lon="5.5899">
        <ele>377.6</ele>
      </trkpt>
      <trkpt lat="46.66675" lon="5.58958">
        <ele>372.3</ele>
      </trkpt>
      <trkpt lat="46.66694" lon="5.58948">
        <ele>371.5</ele>
        <extensions>
          <visugpx:TrkExtension xmlns:visugpx="https://www.visugpx.com/editgpx/">
            <visugpx:node>6</visugpx:node>
            </visugpx:TrkExtension>
        </extensions>
      </trkpt>
      <trkpt lat="46.667" lon="5.58945">
        <ele>371.3</ele>
        <time>2000-01-01T02:55:50.000Z</time>
      </trkpt>
      <trkpt lat="46.66694" lon="5.58939">
        <ele>370.4</ele>
        <time>2000-01-01T02:56:00.000Z</time>
      </trkpt>
      <trkpt lat="46.66703" lon="5.58928">
        <ele>368</ele>
        <time>2000-01-01T02:56:10.000Z</time>
      </trkpt>
      <trkpt lat="46.66696" lon="5.58908">
        <ele>366.4</ele>
        <time>2000-01-01T02:56:20.000Z</time>
      </trkpt>
      <trkpt lat="46.66694" lon="5.58896">
        <ele>363</ele>
        <time>2000-01-01T02:56:30.000Z</time>
      </trkpt>
      <trkpt lat="46.66694" lon="5.58885">
        <ele>362.4</ele>
        <time>2000-01-01T02:56:40.000Z</time>
      </trkpt>
      <trkpt lat="46.66692" lon="5.58859">
        <ele>358</ele>
        <time>2000-01-01T02:56:50.000Z</time>
      </trkpt>
      <trkpt lat="46.66694" lon="5.58834">
        <ele>356.1</ele>
        <time>2000-01-01T02:57:00.000Z</time>
      </trkpt>
      <trkpt lat="46.66698" lon="5.58825">
        <ele>354</ele>
        <time>2000-01-01T02:57:10.000Z</time>
      </trkpt>
      <trkpt lat="46.667" lon="5.58811">
        <ele>352.7</ele>
        <time>2000-01-01T02:57:20.000Z</time>
      </trkpt>
      <trkpt lat="46.66702" lon="5.58801">
        <ele>351.5</ele>
        <time>2000-01-01T02:57:30.000Z</time>
      </trkpt>
      <trkpt lat="46.66701" lon="5.5879">
        <ele>348</ele>
        <time>2000-01-01T02:57:40.000Z</time>
      </trkpt>
      <trkpt lat="46.66705" lon="5.5878">
        <ele>348.9</ele>
        <time>2000-01-01T02:57:50.000Z</time>
      </trkpt>
      <trkpt lat="46.66716" lon="5.58759">
        <ele>343</ele>
        <time>2000-01-01T02:58:00.000Z</time>
      </trkpt>
      <trkpt lat="46.66716" lon="5.58753">
        <ele>344.5</ele>
        <time>2000-01-01T02:58:10.000Z</time>
      </trkpt>
      <trkpt lat="46.66722" lon="5.58745">
        <ele>343.5</ele>
        <time>2000-01-01T02:58:20.000Z</time>
      </trkpt>
      <trkpt lat="46.66723" lon="5.58737">
        <ele>342.6</ele>
        <time>2000-01-01T02:58:30.000Z</time>
      </trkpt>
      <trkpt lat="46.66728" lon="5.58721">
        <ele>340</ele>
        <time>2000-01-01T02:58:40.000Z</time>
      </trkpt>
      <trkpt lat="46.66731" lon="5.58709">
        <ele>339.1</ele>
        <time>2000-01-01T02:58:50.000Z</time>
      </trkpt>
      <trkpt lat="46.66731" lon="5.58697">
        <ele>337.4</ele>
        <time>2000-01-01T02:59:00.000Z</time>
      </trkpt>
      <trkpt lat="46.6673" lon="5.58673">
        <ele>333</ele>
        <time>2000-01-01T02:59:10.000Z</time>
      </trkpt>
      <trkpt lat="46.6673" lon="5.58652">
        <ele>331.2</ele>
        <time>2000-01-01T02:59:20.000Z</time>
      </trkpt>
      <trkpt lat="46.66734" lon="5.58636">
        <ele>328</ele>
        <time>2000-01-01T02:59:30.000Z</time>
      </trkpt>
      <trkpt lat="46.66759" lon="5.586">
        <ele>323</ele>
        <time>2000-01-01T02:59:40.000Z</time>
      </trkpt>
      <trkpt lat="46.66768" lon="5.58586">
        <ele>325.3</ele>
        <time>2000-01-01T02:59:50.000Z</time>
      </trkpt>
      <trkpt lat="46.66778" lon="5.58579">
        <ele>323</ele>
        <time>2000-01-01T03:00:00.000Z</time>
      </trkpt>
      <trkpt lat="46.66787" lon="5.58577">
        <ele>325.5</ele>
        <time>2000-01-01T03:00:10.000Z</time>
        <extensions>
          <visugpx:TrkExtension xmlns:visugpx="https://www.visugpx.com/editgpx/">
            <visugpx:node>9</visugpx:node>
            </visugpx:TrkExtension>
        </extensions>
      </trkpt>
      <trkpt lat="46.66784" lon="5.58568">
        <ele>324</ele>
      </trkpt>
      <trkpt lat="46.6678" lon="5.58553">
        <ele>321.2</ele>
      </trkpt>
      <trkpt lat="46.66773" lon="5.58539">
        <ele>319.5</ele>
      </trkpt>
      <trkpt lat="46.66765" lon="5.58531">
        <ele>318.4</ele>
      </trkpt>
      <trkpt lat="46.66757" lon="5.5852">
        <ele>316.9</ele>
      </trkpt>
      <trkpt lat="46.66746" lon="5.58508">
        <ele>315.4</ele>
      </trkpt>
      <trkpt lat="46.66735" lon="5.58494">
        <ele>314.3</ele>
      </trkpt>
      <trkpt lat="46.66728" lon="5.58486">
        <ele>313.8</ele>
      </trkpt>
      <trkpt lat="46.66728" lon="5.58485">
        <ele>313.8</ele>
      </trkpt>
      <trkpt lat="46.66728" lon="5.58483">
        <ele>313.7</ele>
      </trkpt>
      <trkpt lat="46.66728" lon="5.58482">
        <ele>313.7</ele>
      </trkpt>
      <trkpt lat="46.66728" lon="5.58481">
        <ele>313.7</ele>
      </trkpt>
      <trkpt lat="46.66728" lon="5.58479">
        <ele>313.6</ele>
      </trkpt>
      <trkpt lat="46.66727" lon="5.58478">
        <ele>313.5</ele>
      </trkpt>
      <trkpt lat="46.66726" lon="5.58477">
        <ele>313.4</ele>
        <extensions>
          <visugpx:TrkExtension xmlns:visugpx="https://www.visugpx.com/editgpx/">
            <visugpx:node>10</visugpx:node>
            </visugpx:TrkExtension>
        </extensions>
      </trkpt>
      <trkpt lat="46.66725" lon="5.58476">
        <ele>313.3</ele>
      </trkpt>
      <trkpt lat="46.66724" lon="5.58476">
        <ele>313.3</ele>
      </trkpt>
      <trkpt lat="46.66723" lon="5.58475">
        <ele>313.2</ele>
      </trkpt>
      <trkpt lat="46.66722" lon="5.58476">
        <ele>313.1</ele>
      </trkpt>
      <trkpt lat="46.66721" lon="5.58476">
        <ele>313</ele>
      </trkpt>
      <trkpt lat="46.66717" lon="5.58455">
        <ele>311.3</ele>
      </trkpt>
      <trkpt lat="46.66715" lon="5.58442">
        <ele>310.4</ele>
      </trkpt>
      <trkpt lat="46.66714" lon="5.5843">
        <ele>310</ele>
      </trkpt>
      <trkpt lat="46.66714" lon="5.58418">
        <ele>309.7</ele>
      </trkpt>
      <trkpt lat="46.66715" lon="5.58361">
        <ele>305.7</ele>
        <extensions>
          <visugpx:TrkExtension xmlns:visugpx="https://www.visugpx.com/editgpx/">
            <visugpx:node>11</visugpx:node>
            </visugpx:TrkExtension>
        </extensions>
      </trkpt>
      <trkpt lat="46.66726" lon="5.58362">
        <ele>306.2</ele>
      </trkpt>
      <trkpt lat="46.66754" lon="5.58367">
        <ele>307.2</ele>
      </trkpt>
      <trkpt lat="46.66761" lon="5.58367">
        <ele>307.3</ele>
      </trkpt>
      <trkpt lat="46.66762" lon="5.58365">
        <ele>307.2</ele>
        <extensions>
          <visugpx:TrkExtension xmlns:visugpx="https://www.visugpx.com/editgpx/">
            <visugpx:node>12</visugpx:node>
            </visugpx:TrkExtension>
        </extensions>
      </trkpt>
      <trkpt lat="46.66763" lon="5.58365">
        <ele>307.2</ele>
      </trkpt>
      <trkpt lat="46.66764" lon="5.58361">
        <ele>307</ele>
      </trkpt>
      <trkpt lat="46.66766" lon="5.58357">
        <ele>306.7</ele>
      </trkpt>
      <trkpt lat="46.66767" lon="5.58352">
        <ele>306.3</ele>
      </trkpt>
      <trkpt lat="46.66769" lon="5.58348">
        <ele>306.1</ele>
      </trkpt>
      <trkpt lat="46.6677" lon="5.58344">
        <ele>305.8</ele>
      </trkpt>
      <trkpt lat="46.66772" lon="5.58339">
        <ele>305.4</ele>
      </trkpt>
      <trkpt lat="46.66774" lon="5.58331">
        <ele>305.1</ele>
      </trkpt>
      <trkpt lat="46.66784" lon="5.58333">
        <ele>305.5</ele>
      </trkpt>
      <trkpt lat="46.66799" lon="5.5834">
        <ele>306.8</ele>
      </trkpt>
      <trkpt lat="46.6681" lon="5.58345">
        <ele>307.5</ele>
      </trkpt>
      <trkpt lat="46.66817" lon="5.58352">
        <ele>307.9</ele>
        <extensions>
          <visugpx:TrkExtension xmlns:visugpx="https://www.visugpx.com/editgpx/">
            <visugpx:node>13</visugpx:node>
            </visugpx:TrkExtension>
        </extensions>
      </trkpt>
      <trkpt lat="46.66819" lon="5.5836">
        <ele>307</ele>
        <time>2000-01-01T03:02:40.000Z</time>
        <extensions>
          <visugpx:TrkExtension xmlns:visugpx="https://www.visugpx.com/editgpx/">
            <visugpx:node>9</visugpx:node>
            </visugpx:TrkExtension>
        </extensions>
      </trkpt>
      <trkpt lat="46.66819" lon="5.58341">
        <ele>307.4</ele>
        <time>2000-01-01T03:02:50.000Z</time>
      </trkpt>
      <trkpt lat="46.66831" lon="5.58348">
        <ele>307</ele>
        <time>2000-01-01T03:03:00.000Z</time>
      </trkpt>
      <trkpt lat="46.66842" lon="5.5832">
        <ele>306</ele>
        <time>2000-01-01T03:03:10.000Z</time>
      </trkpt>
      <trkpt lat="46.66847" lon="5.5829">
        <ele>306</ele>
        <time>2000-01-01T03:03:20.000Z</time>
      </trkpt>
      <trkpt lat="46.66854" lon="5.58255">
        <ele>306</ele>
        <time>2000-01-01T03:03:30.000Z</time>
      </trkpt>
      <trkpt lat="46.66861" lon="5.58239">
        <ele>306.4</ele>
        <time>2000-01-01T03:03:40.000Z</time>
      </trkpt>
      <trkpt lat="46.66879" lon="5.58242">
        <ele>306</ele>
        <time>2000-01-01T03:03:50.000Z</time>
      </trkpt>
      <trkpt lat="46.66893" lon="5.58226">
        <ele>307.1</ele>
        <time>2000-01-01T03:04:00.000Z</time>
      </trkpt>
      <trkpt lat="46.66901" lon="5.58215">
        <ele>307</ele>
        <time>2000-01-01T03:04:10.000Z</time>
      </trkpt>
      <trkpt lat="46.66909" lon="5.58213">
        <ele>308.1</ele>
        <time>2000-01-01T03:04:20.000Z</time>
      </trkpt>
      <trkpt lat="46.66945" lon="5.58211">
        <ele>309</ele>
        <time>2000-01-01T03:04:30.000Z</time>
      </trkpt>
      <trkpt lat="46.66951" lon="5.5821">
        <ele>309.8</ele>
        <time>2000-01-01T03:04:40.000Z</time>
      </trkpt>
      <trkpt lat="46.66955" lon="5.58199">
        <ele>309.5</ele>
        <time>2000-01-01T03:04:50.000Z</time>
      </trkpt>
      <trkpt lat="46.66953" lon="5.58134">
        <ele>309</ele>
        <time>2000-01-01T03:05:00.000Z</time>
      </trkpt>
      <trkpt lat="46.66952" lon="5.58117">
        <ele>308.8</ele>
        <time>2000-01-01T03:05:10.000Z</time>
      </trkpt>
      <trkpt lat="46.66953" lon="5.58088">
        <ele>308</ele>
        <time>2000-01-01T03:05:20.000Z</time>
      </trkpt>
      <trkpt lat="46.6695" lon="5.5806">
        <ele>306</ele>
        <time>2000-01-01T03:05:30.000Z</time>
      </trkpt>
      <trkpt lat="46.66946" lon="5.58053">
        <ele>306.9</ele>
        <time>2000-01-01T03:05:40.000Z</time>
      </trkpt>
      <trkpt lat="46.66927" lon="5.58042">
        <ele>306</ele>
        <time>2000-01-01T03:05:50.000Z</time>
      </trkpt>
      <trkpt lat="46.66922" lon="5.58023">
        <ele>305.8</ele>
        <time>2000-01-01T03:06:00.000Z</time>
      </trkpt>
      <trkpt lat="46.66925" lon="5.58008">
        <ele>305</ele>
        <time>2000-01-01T03:06:10.000Z</time>
      </trkpt>
      <trkpt lat="46.66927" lon="5.57988">
        <ele>304.8</ele>
        <time>2000-01-01T03:06:20.000Z</time>
      </trkpt>
      <trkpt lat="46.66926" lon="5.57969">
        <ele>305</ele>
        <time>2000-01-01T03:06:30.000Z</time>
      </trkpt>
      <trkpt lat="46.66902" lon="5.57951">
        <ele>305</ele>
        <time>2000-01-01T03:06:40.000Z</time>
      </trkpt>
      <trkpt lat="46.66899" lon="5.5794">
        <ele>304.4</ele>
        <time>2000-01-01T03:06:50.000Z</time>
      </trkpt>
      <trkpt lat="46.66889" lon="5.5791">
        <ele>301</ele>
        <time>2000-01-01T03:07:00.000Z</time>
      </trkpt>
      <trkpt lat="46.66887" lon="5.57886">
        <ele>299.8</ele>
        <time>2000-01-01T03:07:10.000Z</time>
      </trkpt>
      <trkpt lat="46.66887" lon="5.57861">
        <ele>297</ele>
        <time>2000-01-01T03:07:20.000Z</time>
      </trkpt>
      <trkpt lat="46.66888" lon="5.57849">
        <ele>296.1</ele>
        <time>2000-01-01T03:07:30.000Z</time>
      </trkpt>
      <trkpt lat="46.66885" lon="5.57831">
        <ele>295</ele>
        <time>2000-01-01T03:07:40.000Z</time>
      </trkpt>
      <trkpt lat="46.66881" lon="5.57815">
        <ele>293.3</ele>
        <time>2000-01-01T03:07:50.000Z</time>
      </trkpt>
      <trkpt lat="46.66877" lon="5.57802">
        <ele>290</ele>
        <time>2000-01-01T03:08:00.000Z</time>
      </trkpt>
      <trkpt lat="46.6688" lon="5.57794">
        <ele>290.7</ele>
        <time>2000-01-01T03:08:10.000Z</time>
      </trkpt>
      <trkpt lat="46.66886" lon="5.57785">
        <ele>289.8</ele>
        <time>2000-01-01T03:08:20.000Z</time>
      </trkpt>
      <trkpt lat="46.66899" lon="5.57761">
        <ele>287</ele>
        <time>2000-01-01T03:08:30.000Z</time>
      </trkpt>
      <trkpt lat="46.66901" lon="5.57751">
        <ele>287.4</ele>
        <time>2000-01-01T03:08:40.000Z</time>
      </trkpt>
      <trkpt lat="46.66899" lon="5.57734">
        <ele>284</ele>
        <time>2000-01-01T03:08:50.000Z</time>
      </trkpt>
      <trkpt lat="46.6689" lon="5.57715">
        <ele>282.8</ele>
        <time>2000-01-01T03:09:00.000Z</time>
      </trkpt>
      <trkpt lat="46.66887" lon="5.57706">
        <ele>281</ele>
        <time>2000-01-01T03:09:10.000Z</time>
      </trkpt>
      <trkpt lat="46.66886" lon="5.57697">
        <ele>282.1</ele>
        <time>2000-01-01T03:09:20.000Z</time>
      </trkpt>
      <trkpt lat="46.66881" lon="5.57681">
        <ele>281.5</ele>
        <time>2000-01-01T03:09:30.000Z</time>
      </trkpt>
      <trkpt lat="46.66847" lon="5.57647">
        <ele>280</ele>
        <time>2000-01-01T03:09:40.000Z</time>
      </trkpt>
      <trkpt lat="46.66832" lon="5.57638">
        <ele>281</ele>
        <time>2000-01-01T03:09:50.000Z</time>
      </trkpt>
      <trkpt lat="46.66832" lon="5.57622">
        <ele>280</ele>
        <time>2000-01-01T03:10:00.000Z</time>
      </trkpt>
      <trkpt lat="46.66838" lon="5.57606">
        <ele>280.5</ele>
        <time>2000-01-01T03:10:10.000Z</time>
      </trkpt>
      <trkpt lat="46.66826" lon="5.57589">
        <ele>279</ele>
        <time>2000-01-01T03:10:20.000Z</time>
      </trkpt>
      <trkpt lat="46.66809" lon="5.57576">
        <ele>279</ele>
        <time>2000-01-01T03:10:30.000Z</time>
      </trkpt>
      <trkpt lat="46.66788" lon="5.57557">
        <ele>279</ele>
        <time>2000-01-01T03:10:40.000Z</time>
      </trkpt>
      <trkpt lat="46.66764" lon="5.57534">
        <ele>278</ele>
        <time>2000-01-01T03:10:50.000Z</time>
      </trkpt>
      <trkpt lat="46.66742" lon="5.5751">
        <ele>275</ele>
        <time>2000-01-01T03:11:00.000Z</time>
      </trkpt>
      <trkpt lat="46.66736" lon="5.57497">
        <ele>275</ele>
        <time>2000-01-01T03:11:10.000Z</time>
      </trkpt>
      <trkpt lat="46.66741" lon="5.57463">
        <ele>274</ele>
        <time>2000-01-01T03:11:20.000Z</time>
      </trkpt>
      <trkpt lat="46.66754" lon="5.57422">
        <ele>272</ele>
        <time>2000-01-01T03:11:30.000Z</time>
      </trkpt>
      <trkpt lat="46.66757" lon="5.57404">
        <ele>273.9</ele>
        <time>2000-01-01T03:11:40.000Z</time>
      </trkpt>
      <trkpt lat="46.66763" lon="5.57389">
        <ele>272</ele>
        <time>2000-01-01T03:11:50.000Z</time>
      </trkpt>
      <trkpt lat="46.66764" lon="5.57376">
        <ele>274.3</ele>
        <time>2000-01-01T03:12:00.000Z</time>
      </trkpt>
      <trkpt lat="46.66772" lon="5.57336">
        <ele>272</ele>
        <time>2000-01-01T03:12:10.000Z</time>
      </trkpt>
      <trkpt lat="46.66786" lon="5.57306">
        <ele>273</ele>
        <time>2000-01-01T03:12:20.000Z</time>
      </trkpt>
      <trkpt lat="46.66801" lon="5.57272">
        <ele>272</ele>
        <time>2000-01-01T03:12:30.000Z</time>
      </trkpt>
      <trkpt lat="46.66829" lon="5.57231">
        <ele>273</ele>
        <time>2000-01-01T03:12:40.000Z</time>
      </trkpt>
      <trkpt lat="46.6683" lon="5.57215">
        <ele>273.5</ele>
        <time>2000-01-01T03:12:50.000Z</time>
      </trkpt>
      <trkpt lat="46.66812" lon="5.57208">
        <ele>274</ele>
        <time>2000-01-01T03:13:00.000Z</time>
      </trkpt>
      <trkpt lat="46.66799" lon="5.57208">
        <ele>274.1</ele>
        <time>2000-01-01T03:13:10.000Z</time>
      </trkpt>
      <trkpt lat="46.66779" lon="5.57204">
        <ele>275</ele>
        <time>2000-01-01T03:13:20.000Z</time>
      </trkpt>
      <trkpt lat="46.66766" lon="5.57199">
        <ele>276</ele>
        <time>2000-01-01T03:13:30.000Z</time>
      </trkpt>
      <trkpt lat="46.66742" lon="5.57214">
        <ele>275</ele>
        <time>2000-01-01T03:13:40.000Z</time>
      </trkpt>
      <trkpt lat="46.66719" lon="5.5722">
        <ele>275</ele>
        <time>2000-01-01T03:13:50.000Z</time>
      </trkpt>
      <trkpt lat="46.66708" lon="5.57209">
        <ele>278.5</ele>
        <time>2000-01-01T03:14:00.000Z</time>
      </trkpt>
      <trkpt lat="46.66698" lon="5.57168">
        <ele>275</ele>
        <time>2000-01-01T03:14:10.000Z</time>
      </trkpt>
      <trkpt lat="46.66694" lon="5.57133">
        <ele>276</ele>
        <time>2000-01-01T03:14:20.000Z</time>
      </trkpt>
      <trkpt lat="46.66705" lon="5.57103">
        <ele>276</ele>
        <time>2000-01-01T03:14:30.000Z</time>
      </trkpt>
      <trkpt lat="46.66716" lon="5.57073">
        <ele>277</ele>
        <time>2000-01-01T03:14:40.000Z</time>
      </trkpt>
      <trkpt lat="46.66724" lon="5.57045">
        <ele>276</ele>
        <time>2000-01-01T03:14:50.000Z</time>
      </trkpt>
      <trkpt lat="46.66739" lon="5.57031">
        <ele>277</ele>
        <time>2000-01-01T03:15:00.000Z</time>
      </trkpt>
      <trkpt lat="46.6676" lon="5.57029">
        <ele>276</ele>
        <time>2000-01-01T03:15:10.000Z</time>
      </trkpt>
      <trkpt lat="46.66773" lon="5.57007">
        <ele>276</ele>
        <time>2000-01-01T03:15:20.000Z</time>
      </trkpt>
      <trkpt lat="46.66777" lon="5.5698">
        <ele>277</ele>
        <time>2000-01-01T03:15:30.000Z</time>
      </trkpt>
      <trkpt lat="46.66775" lon="5.56967">
        <ele>277.5</ele>
        <time>2000-01-01T03:15:40.000Z</time>
      </trkpt>
      <trkpt lat="46.66773" lon="5.56959">
        <ele>279.4</ele>
        <time>2000-01-01T03:15:50.000Z</time>
      </trkpt>
      <trkpt lat="46.66767" lon="5.56946">
        <ele>283</ele>
        <time>2000-01-01T03:16:00.000Z</time>
      </trkpt>
      <trkpt lat="46.66764" lon="5.56933">
        <ele>285.1</ele>
        <time>2000-01-01T03:16:10.000Z</time>
      </trkpt>
      <trkpt lat="46.66759" lon="5.56918">
        <ele>289</ele>
        <time>2000-01-01T03:16:20.000Z</time>
      </trkpt>
      <trkpt lat="46.66757" lon="5.56909">
        <ele>288.7</ele>
        <time>2000-01-01T03:16:30.000Z</time>
      </trkpt>
      <trkpt lat="46.66764" lon="5.56898">
        <ele>289.3</ele>
        <time>2000-01-01T03:16:40.000Z</time>
      </trkpt>
      <trkpt lat="46.66767" lon="5.56888">
        <ele>290</ele>
        <time>2000-01-01T03:16:50.000Z</time>
      </trkpt>
      <trkpt lat="46.66765" lon="5.56873">
        <ele>289.9</ele>
        <time>2000-01-01T03:17:00.000Z</time>
      </trkpt>
      <trkpt lat="46.66765" lon="5.56864">
        <ele>289.9</ele>
        <time>2000-01-01T03:17:10.000Z</time>
      </trkpt>
      <trkpt lat="46.66761" lon="5.56845">
        <ele>290</ele>
        <time>2000-01-01T03:17:20.000Z</time>
      </trkpt>
      <trkpt lat="46.66757" lon="5.56835">
        <ele>289.3</ele>
        <time>2000-01-01T03:17:30.000Z</time>
      </trkpt>
      <trkpt lat="46.66754" lon="5.56819">
        <ele>287</ele>
        <time>2000-01-01T03:17:40.000Z</time>
      </trkpt>
      <trkpt lat="46.66751" lon="5.5681">
        <ele>286.5</ele>
        <time>2000-01-01T03:17:50.000Z</time>
      </trkpt>
      <trkpt lat="46.66751" lon="5.56799">
        <ele>285.2</ele>
        <time>2000-01-01T03:18:00.000Z</time>
      </trkpt>
      <trkpt lat="46.66752" lon="5.5679">
        <ele>283</ele>
        <time>2000-01-01T03:18:10.000Z</time>
      </trkpt>
      <trkpt lat="46.66758" lon="5.56783">
        <ele>282.5</ele>
        <time>2000-01-01T03:18:20.000Z</time>
      </trkpt>
      <trkpt lat="46.6676" lon="5.56773">
        <ele>280.9</ele>
        <time>2000-01-01T03:18:30.000Z</time>
      </trkpt>
      <trkpt lat="46.66781" lon="5.56766">
        <ele>277</ele>
        <time>2000-01-01T03:18:40.000Z</time>
      </trkpt>
      <trkpt lat="46.6679" lon="5.56764">
        <ele>276.9</ele>
        <time>2000-01-01T03:18:50.000Z</time>
      </trkpt>
      <trkpt lat="46.66816" lon="5.5675">
        <ele>273</ele>
        <time>2000-01-01T03:19:00.000Z</time>
      </trkpt>
      <trkpt lat="46.66821" lon="5.56732">
        <ele>272.9</ele>
        <time>2000-01-01T03:19:10.000Z</time>
      </trkpt>
      <trkpt lat="46.66822" lon="5.5673">
        <ele>272.8</ele>
        <time>2000-01-01T03:19:20.000Z</time>
      </trkpt>
      <trkpt lat="46.66821" lon="5.56722">
        <ele>271</ele>
        <time>2000-01-01T03:19:30.000Z</time>
      </trkpt>
      <trkpt lat="46.6683" lon="5.56716">
        <ele>272.9</ele>
        <time>2000-01-01T03:19:40.000Z</time>
      </trkpt>
      <trkpt lat="46.66872" lon="5.5671">
        <ele>270</ele>
        <time>2000-01-01T03:19:50.000Z</time>
      </trkpt>
      <trkpt lat="46.66892" lon="5.5672">
        <ele>269</ele>
        <time>2000-01-01T03:20:00.000Z</time>
      </trkpt>
      <trkpt lat="46.669" lon="5.56736">
        <ele>271.2</ele>
        <time>2000-01-01T03:20:10.000Z</time>
      </trkpt>
      <trkpt lat="46.66926" lon="5.56736">
        <ele>269</ele>
        <time>2000-01-01T03:20:20.000Z</time>
      </trkpt>
      <trkpt lat="46.66951" lon="5.56735">
        <ele>268</ele>
        <time>2000-01-01T03:20:30.000Z</time>
      </trkpt>
      <trkpt lat="46.66957" lon="5.56734">
        <ele>268.5</ele>
        <time>2000-01-01T03:20:40.000Z</time>
      </trkpt>
      <trkpt lat="46.66966" lon="5.5674">
        <ele>268.2</ele>
        <time>2000-01-01T03:20:50.000Z</time>
      </trkpt>
      <trkpt lat="46.66979" lon="5.56761">
        <ele>268</ele>
        <time>2000-01-01T03:21:00.000Z</time>
      </trkpt>
      <trkpt lat="46.66993" lon="5.56788">
        <ele>268</ele>
        <time>2000-01-01T03:21:10.000Z</time>
      </trkpt>
      <trkpt lat="46.67007" lon="5.56816">
        <ele>267</ele>
        <time>2000-01-01T03:21:20.000Z</time>
      </trkpt>
      <trkpt lat="46.67029" lon="5.56789">
        <ele>267</ele>
        <time>2000-01-01T03:21:30.000Z</time>
      </trkpt>
      <trkpt lat="46.67059" lon="5.56758">
        <ele>267</ele>
        <time>2000-01-01T03:21:40.000Z</time>
      </trkpt>
      <trkpt lat="46.67066" lon="5.56745">
        <ele>266.4</ele>
        <time>2000-01-01T03:21:50.000Z</time>
      </trkpt>
      <trkpt lat="46.67083" lon="5.56729">
        <ele>266</ele>
        <time>2000-01-01T03:22:00.000Z</time>
      </trkpt>
      <trkpt lat="46.67092" lon="5.56714">
        <ele>266.8</ele>
        <time>2000-01-01T03:22:10.000Z</time>
      </trkpt>
      <trkpt lat="46.671" lon="5.56686">
        <ele>266</ele>
        <time>2000-01-01T03:22:20.000Z</time>
      </trkpt>
      <trkpt lat="46.67108" lon="5.56659">
        <ele>266</ele>
        <time>2000-01-01T03:22:30.000Z</time>
      </trkpt>
      <trkpt lat="46.67126" lon="5.56614">
        <ele>265</ele>
        <time>2000-01-01T03:22:40.000Z</time>
      </trkpt>
      <trkpt lat="46.67136" lon="5.56594">
        <ele>264.8</ele>
        <time>2000-01-01T03:22:50.000Z</time>
      </trkpt>
      <trkpt lat="46.67138" lon="5.56585">
        <ele>265</ele>
        <time>2000-01-01T03:23:00.000Z</time>
      </trkpt>
      <trkpt lat="46.67143" lon="5.56571">
        <ele>265</ele>
        <time>2000-01-01T03:23:10.000Z</time>
      </trkpt>
      <trkpt lat="46.67149" lon="5.56559">
        <ele>265</ele>
        <time>2000-01-01T03:23:20.000Z</time>
      </trkpt>
      <trkpt lat="46.67155" lon="5.56549">
        <ele>264.6</ele>
        <time>2000-01-01T03:23:30.000Z</time>
      </trkpt>
      <trkpt lat="46.67163" lon="5.56539">
        <ele>264</ele>
        <time>2000-01-01T03:23:40.000Z</time>
      </trkpt>
      <trkpt lat="46.67167" lon="5.56524">
        <ele>265</ele>
        <time>2000-01-01T03:23:50.000Z</time>
      </trkpt>
      <trkpt lat="46.67188" lon="5.56496">
        <ele>264</ele>
        <time>2000-01-01T03:24:00.000Z</time>
      </trkpt>
      <trkpt lat="46.67196" lon="5.56487">
        <ele>264</ele>
        <time>2000-01-01T03:24:10.000Z</time>
      </trkpt>
      <trkpt lat="46.67206" lon="5.56471">
        <ele>263</ele>
        <time>2000-01-01T03:24:20.000Z</time>
      </trkpt>
      <trkpt lat="46.67218" lon="5.56448">
        <ele>263</ele>
        <time>2000-01-01T03:24:30.000Z</time>
      </trkpt>
      <trkpt lat="46.67229" lon="5.56425">
        <ele>263</ele>
        <time>2000-01-01T03:24:40.000Z</time>
      </trkpt>
      <trkpt lat="46.67232" lon="5.56417">
        <ele>264</ele>
        <time>2000-01-01T03:24:50.000Z</time>
      </trkpt>
      <trkpt lat="46.67235" lon="5.56389">
        <ele>263</ele>
        <time>2000-01-01T03:25:00.000Z</time>
      </trkpt>
      <trkpt lat="46.67241" lon="5.56359">
        <ele>262</ele>
        <time>2000-01-01T03:25:10.000Z</time>
      </trkpt>
      <trkpt lat="46.6724" lon="5.56331">
        <ele>262</ele>
        <time>2000-01-01T03:25:20.000Z</time>
      </trkpt>
      <trkpt lat="46.67243" lon="5.56293">
        <ele>262</ele>
        <time>2000-01-01T03:25:30.000Z</time>
      </trkpt>
      <trkpt lat="46.67243" lon="5.56263">
        <ele>261</ele>
        <time>2000-01-01T03:25:40.000Z</time>
      </trkpt>
      <trkpt lat="46.67249" lon="5.56235">
        <ele>261</ele>
        <time>2000-01-01T03:25:50.000Z</time>
      </trkpt>
      <trkpt lat="46.67256" lon="5.56198">
        <ele>261</ele>
        <time>2000-01-01T03:26:00.000Z</time>
      </trkpt>
      <trkpt lat="46.67264" lon="5.56146">
        <ele>260</ele>
        <time>2000-01-01T03:26:10.000Z</time>
      </trkpt>
      <trkpt lat="46.67263" lon="5.5612">
        <ele>260.4</ele>
        <time>2000-01-01T03:26:20.000Z</time>
      </trkpt>
      <trkpt lat="46.67263" lon="5.56108">
        <ele>260</ele>
        <time>2000-01-01T03:26:30.000Z</time>
      </trkpt>
      <trkpt lat="46.67267" lon="5.56081">
        <ele>260</ele>
        <time>2000-01-01T03:26:40.000Z</time>
      </trkpt>
      <trkpt lat="46.67276" lon="5.56041">
        <ele>260</ele>
        <time>2000-01-01T03:26:50.000Z</time>
      </trkpt>
      <trkpt lat="46.67278" lon="5.56015">
        <ele>260</ele>
        <time>2000-01-01T03:27:00.000Z</time>
      </trkpt>
      <trkpt lat="46.67283" lon="5.55986">
        <ele>259</ele>
        <time>2000-01-01T03:27:10.000Z</time>
      </trkpt>
      <trkpt lat="46.67286" lon="5.55958">
        <ele>259</ele>
        <time>2000-01-01T03:27:20.000Z</time>
      </trkpt>
      <trkpt lat="46.67288" lon="5.55945">
        <ele>259.4</ele>
        <time>2000-01-01T03:27:30.000Z</time>
      </trkpt>
      <trkpt lat="46.67286" lon="5.55918">
        <ele>259</ele>
        <time>2000-01-01T03:27:40.000Z</time>
      </trkpt>
      <trkpt lat="46.67274" lon="5.55892">
        <ele>259</ele>
        <time>2000-01-01T03:27:50.000Z</time>
      </trkpt>
      <trkpt lat="46.67272" lon="5.55876">
        <ele>259.5</ele>
        <time>2000-01-01T03:28:00.000Z</time>
      </trkpt>
      <trkpt lat="46.67274" lon="5.5586">
        <ele>258</ele>
        <time>2000-01-01T03:28:10.000Z</time>
      </trkpt>
      <trkpt lat="46.67273" lon="5.55842">
        <ele>258.4</ele>
        <time>2000-01-01T03:28:20.000Z</time>
      </trkpt>
      <trkpt lat="46.67273" lon="5.55814">
        <ele>257</ele>
        <time>2000-01-01T03:28:30.000Z</time>
      </trkpt>
      <trkpt lat="46.67277" lon="5.55768">
        <ele>257</ele>
        <time>2000-01-01T03:28:40.000Z</time>
      </trkpt>
      <trkpt lat="46.67277" lon="5.55741">
        <ele>257</ele>
        <time>2000-01-01T03:28:50.000Z</time>
      </trkpt>
      <trkpt lat="46.67282" lon="5.55713">
        <ele>256</ele>
        <time>2000-01-01T03:29:00.000Z</time>
      </trkpt>
      <trkpt lat="46.67284" lon="5.55682">
        <ele>256</ele>
        <time>2000-01-01T03:29:10.000Z</time>
      </trkpt>
      <trkpt lat="46.67295" lon="5.55685">
        <ele>257.6</ele>
        <time>2000-01-01T03:29:20.000Z</time>
      </trkpt>
      <trkpt lat="46.67306" lon="5.55683">
        <ele>257</ele>
        <time>2000-01-01T03:29:30.000Z</time>
      </trkpt>
      <trkpt lat="46.6731" lon="5.5564">
        <ele>257</ele>
        <time>2000-01-01T03:29:40.000Z</time>
      </trkpt>
      <trkpt lat="46.67312" lon="5.55612">
        <ele>257</ele>
        <time>2000-01-01T03:29:50.000Z</time>
      </trkpt>
      <trkpt lat="46.6731" lon="5.55588">
        <ele>257</ele>
        <time>2000-01-01T03:30:00.000Z</time>
      </trkpt>
      <trkpt lat="46.67315" lon="5.55556">
        <ele>256</ele>
        <time>2000-01-01T03:30:10.000Z</time>
      </trkpt>
      <trkpt lat="46.6732" lon="5.5551">
        <ele>256</ele>
        <time>2000-01-01T03:30:20.000Z</time>
      </trkpt>
      <trkpt lat="46.67334" lon="5.555">
        <ele>256</ele>
        <time>2000-01-01T03:30:30.000Z</time>
      </trkpt>
      <trkpt lat="46.67343" lon="5.55487">
        <ele>256</ele>
        <time>2000-01-01T03:30:40.000Z</time>
      </trkpt>
      <trkpt lat="46.6735" lon="5.55488">
        <ele>256.3</ele>
        <time>2000-01-01T03:30:50.000Z</time>
      </trkpt>
      <trkpt lat="46.67355" lon="5.55479">
        <ele>256.2</ele>
        <time>2000-01-01T03:31:00.000Z</time>
      </trkpt>
      <trkpt lat="46.67361" lon="5.55478">
        <ele>256</ele>
        <time>2000-01-01T03:31:10.000Z</time>
      </trkpt>
      <trkpt lat="46.67378" lon="5.55483">
        <ele>256.4</ele>
        <time>2000-01-01T03:31:20.000Z</time>
      </trkpt>
      <trkpt lat="46.67385" lon="5.55487">
        <ele>256</ele>
        <time>2000-01-01T03:31:30.000Z</time>
      </trkpt>
      <trkpt lat="46.6741" lon="5.55495">
        <ele>256</ele>
        <time>2000-01-01T03:31:40.000Z</time>
      </trkpt>
      <trkpt lat="46.67417" lon="5.55473">
        <ele>256</ele>
        <time>2000-01-01T03:31:50.000Z</time>
      </trkpt>
      <trkpt lat="46.67426" lon="5.55449">
        <ele>255</ele>
        <time>2000-01-01T03:32:00.000Z</time>
      </trkpt>
      <trkpt lat="46.6743" lon="5.55449">
        <ele>255.2</ele>
        <time>2000-01-01T03:32:10.000Z</time>
      </trkpt>
      <trkpt lat="46.67447" lon="5.55424">
        <ele>255</ele>
        <time>2000-01-01T03:32:20.000Z</time>
      </trkpt>
      <trkpt lat="46.67459" lon="5.55391">
        <ele>254</ele>
        <time>2000-01-01T03:32:30.000Z</time>
      </trkpt>
      <trkpt lat="46.67475" lon="5.55357">
        <ele>254</ele>
        <time>2000-01-01T03:32:40.000Z</time>
      </trkpt>
      <trkpt lat="46.67469" lon="5.55349">
        <ele>254.9</ele>
        <time>2000-01-01T03:32:50.000Z</time>
      </trkpt>
      <trkpt lat="46.67464" lon="5.55344">
        <ele>254.8</ele>
        <time>2000-01-01T03:33:00.000Z</time>
      </trkpt>
      <trkpt lat="46.67448" lon="5.55324">
        <ele>254</ele>
        <time>2000-01-01T03:33:10.000Z</time>
      </trkpt>
      <trkpt lat="46.6742" lon="5.55285">
        <ele>254</ele>
        <time>2000-01-01T03:33:20.000Z</time>
      </trkpt>
      <trkpt lat="46.67402" lon="5.55262">
        <ele>254</ele>
        <time>2000-01-01T03:33:30.000Z</time>
        <extensions>
          <visugpx:TrkExtension xmlns:visugpx="https://www.visugpx.com/editgpx/">
            <visugpx:node>8</visugpx:node>
            </visugpx:TrkExtension>
        </extensions>
      </trkpt>
    </trkseg>
  </trk>
</gpx>